createdAt,value
2023-04-26T00:00:55.696Z,8.22
2023-04-26T00:03:28.912Z,8.22
2023-04-26T00:05:59.439Z,8.20
2023-04-26T00:08:32.738Z,8.15
2023-04-26T00:11:03.302Z,8.15
2023-04-26T00:13:38.222Z,8.16
2023-04-26T00:16:09.302Z,8.16
2023-04-26T00:18:39.747Z,8.14
2023-04-26T00:21:10.137Z,8.14
2023-04-26T00:23:45.283Z,8.15
2023-04-26T00:26:15.510Z,8.15
2023-04-26T00:28:46.081Z,8.13
2023-04-26T00:31:18.615Z,8.12
2023-04-26T00:33:48.998Z,8.14
2023-04-26T00:36:19.738Z,8.11
2023-04-26T00:38:53.095Z,8.08
2023-04-26T00:41:24.582Z,8.04
2023-04-26T00:43:54.857Z,8.03
2023-04-26T00:46:26.771Z,7.98
2023-04-26T00:48:57.204Z,8.02
2023-04-26T00:51:28.533Z,8.00
2023-04-26T00:54:02.413Z,7.96
2023-04-26T00:56:36.816Z,7.92
2023-04-26T00:59:07.606Z,7.87
2023-04-26T01:01:39.035Z,7.89
2023-04-26T01:04:09.667Z,7.88
2023-04-26T01:06:40.068Z,7.85
2023-04-26T01:09:16.470Z,7.82
2023-04-26T01:11:47.402Z,7.82
2023-04-26T01:14:18.564Z,7.82
2023-04-26T01:16:50.317Z,7.85
2023-04-26T01:19:21.652Z,7.81
2023-04-26T01:21:51.965Z,7.83
2023-04-26T01:24:24.820Z,7.83
2023-04-26T01:26:55.245Z,7.81
2023-04-26T01:29:25.756Z,7.80
2023-04-26T01:31:56.101Z,7.80
2023-04-26T01:34:26.359Z,7.77
2023-04-26T01:36:56.762Z,7.75
2023-04-26T01:39:29.559Z,7.73
2023-04-26T01:42:03.165Z,7.69
2023-04-26T01:44:33.395Z,7.67
2023-04-26T01:47:04.075Z,7.64
2023-04-26T01:49:34.473Z,7.63
2023-04-26T01:52:05.224Z,7.61
2023-04-26T01:54:38.126Z,7.61
2023-04-26T01:57:08.316Z,7.58
2023-04-26T01:59:38.679Z,7.60
2023-04-26T02:02:09.302Z,7.58
2023-04-26T02:04:40.188Z,7.59
2023-04-26T02:07:10.387Z,7.61
2023-04-26T02:09:43.258Z,7.62
2023-04-26T02:12:13.491Z,7.65
2023-04-26T02:14:43.684Z,7.66
2023-04-26T02:17:14.284Z,7.65
2023-04-26T02:19:44.784Z,7.65
2023-04-26T02:22:15.132Z,7.74
2023-04-26T02:24:47.920Z,7.58
2023-04-26T02:27:18.351Z,7.49
2023-04-26T02:29:51.857Z,7.39
2023-04-26T02:32:22.164Z,7.38
2023-04-26T02:34:54.460Z,7.32
2023-04-26T02:37:27.890Z,7.28
2023-04-26T02:40:01.731Z,7.25
2023-04-26T02:42:33.537Z,7.19
2023-04-26T02:45:03.734Z,7.13
2023-04-26T02:47:33.973Z,7.10
2023-04-26T02:50:06.577Z,7.08
2023-04-26T02:52:37.163Z,7.06
2023-04-26T02:55:11.500Z,7.12
2023-04-26T02:57:41.772Z,7.15
2023-04-26T03:00:14.459Z,7.16
2023-04-26T03:02:44.996Z,7.17
2023-04-26T03:05:15.266Z,7.18
2023-04-26T03:07:45.533Z,7.16
2023-04-26T03:10:18.521Z,7.15
2023-04-26T03:12:48.779Z,7.15
2023-04-26T03:15:19.052Z,7.12
2023-04-26T03:17:55.994Z,7.11
2023-04-26T03:20:26.290Z,7.05
2023-04-26T03:22:56.541Z,7.06
2023-04-26T03:25:29.498Z,7.11
2023-04-26T03:27:59.671Z,7.05
2023-04-26T03:30:30.072Z,7.10
2023-04-26T03:33:00.986Z,7.15
2023-04-26T03:35:31.287Z,7.12
2023-04-26T03:38:01.722Z,7.10
2023-04-26T03:40:37.465Z,7.04
2023-04-26T03:43:08.612Z,7.06
2023-04-26T03:45:39.668Z,7.05
2023-04-26T03:48:10.171Z,7.06
2023-04-26T03:50:40.458Z,7.06
2023-04-26T03:53:10.819Z,7.03
2023-04-26T03:55:43.680Z,7.01
2023-04-26T03:58:14.389Z,7.00
2023-04-26T04:00:46.312Z,7.02
2023-04-26T04:03:16.878Z,7.02
2023-04-26T04:05:47.336Z,6.96
2023-04-26T04:08:18.735Z,6.99
2023-04-26T04:10:51.647Z,7.12
2023-04-26T04:13:22.122Z,7.15
2023-04-26T04:15:55.501Z,7.16
2023-04-26T04:18:26.714Z,7.23
2023-04-26T04:20:57.040Z,7.29
2023-04-26T04:23:27.646Z,7.31
2023-04-26T04:26:00.588Z,7.38
2023-04-26T04:28:30.868Z,7.38
2023-04-26T04:31:01.273Z,7.46
2023-04-26T04:33:31.530Z,7.42
2023-04-26T04:36:01.770Z,7.47
2023-04-26T04:38:32.564Z,7.51
2023-04-26T04:41:05.629Z,7.51
2023-04-26T04:43:36.096Z,7.61
2023-04-26T04:46:06.336Z,7.58
2023-04-26T04:48:38.906Z,7.64
2023-04-26T04:51:09.513Z,7.68
2023-04-26T04:53:39.789Z,7.75
2023-04-26T04:56:12.757Z,7.76
2023-04-26T04:58:42.923Z,7.81
2023-04-26T05:01:13.138Z,7.79
2023-04-26T05:03:43.581Z,7.95
2023-04-26T05:06:14.006Z,8.02
2023-04-26T05:08:44.347Z,8.08
2023-04-26T05:11:17.266Z,8.25
2023-04-26T05:13:47.616Z,8.10
2023-04-26T05:16:17.948Z,8.27
2023-04-26T05:18:48.446Z,8.40
2023-04-26T05:21:18.734Z,8.53
2023-04-26T05:23:49.002Z,8.61
2023-04-26T05:26:21.964Z,8.59
2023-04-26T05:28:52.235Z,8.69
2023-04-26T05:31:22.514Z,8.81
2023-04-26T05:33:53.343Z,8.97
2023-04-26T05:36:24.021Z,9.72
2023-04-26T05:38:54.307Z,10.74
2023-04-26T05:41:27.429Z,11.38
2023-04-26T05:43:57.679Z,11.41
2023-04-26T05:46:28.159Z,11.16
2023-04-26T05:48:58.623Z,11.45
2023-04-26T05:51:28.979Z,11.88
2023-04-26T05:54:02.684Z,12.62
2023-04-26T05:56:35.660Z,13.38
2023-04-26T05:59:05.975Z,14.04
2023-04-26T06:01:36.392Z,14.73
2023-04-26T06:04:07.712Z,14.99
2023-04-26T06:06:38.513Z,15.60
2023-04-26T06:09:08.916Z,15.91
2023-04-26T06:11:41.761Z,15.98
2023-04-26T06:14:23.124Z,16.11
2023-04-26T06:17:00.316Z,16.16
2023-04-26T06:19:31.689Z,16.32
2023-04-26T06:22:02.113Z,16.56
2023-04-26T06:24:33.470Z,16.54
2023-04-26T06:27:06.363Z,16.49
2023-04-26T06:29:36.782Z,16.52
2023-04-26T06:32:07.232Z,16.70
2023-04-26T06:34:38.184Z,16.75
2023-04-26T06:37:08.472Z,16.73
2023-04-26T06:39:38.817Z,16.97
2023-04-26T06:42:11.803Z,15.88
2023-04-26T06:44:42.426Z,15.56
2023-04-26T06:47:12.694Z,15.68
2023-04-26T06:49:43.100Z,16.18
2023-04-26T06:52:13.506Z,16.32
2023-04-26T06:54:55.877Z,16.21
2023-04-26T06:57:29.738Z,16.57
2023-04-26T07:00:00.162Z,16.52
2023-04-26T07:02:30.792Z,16.73
2023-04-26T07:05:01.397Z,16.60
2023-04-26T07:07:31.991Z,17.12
2023-04-26T07:10:02.434Z,17.27
2023-04-26T07:12:37.486Z,17.90
2023-04-26T07:15:09.705Z,18.19
2023-04-26T07:17:39.983Z,18.56
2023-04-26T07:20:12.346Z,18.87
2023-04-26T07:22:42.793Z,19.17
2023-04-26T07:25:13.283Z,18.59
2023-04-26T07:27:46.450Z,18.35
2023-04-26T07:30:17.109Z,18.54
2023-04-26T07:32:47.396Z,19.14
2023-04-26T07:35:18.925Z,18.44
2023-04-26T07:37:49.213Z,18.20
2023-04-26T07:40:20.165Z,18.25
2023-04-26T07:42:53.239Z,18.67
2023-04-26T07:45:23.658Z,18.88
2023-04-26T07:47:54.739Z,19.26
2023-04-26T07:50:25.128Z,19.66
2023-04-26T07:52:55.447Z,18.97
2023-04-26T07:55:26.222Z,19.63
2023-04-26T07:57:59.132Z,20.10
2023-04-26T08:00:29.509Z,19.87
2023-04-26T08:02:59.885Z,19.86
2023-04-26T08:05:30.811Z,20.61
2023-04-26T08:08:01.941Z,20.50
2023-04-26T08:10:32.427Z,20.06
2023-04-26T08:13:06.124Z,19.60
2023-04-26T08:15:38.964Z,18.95
2023-04-26T08:18:09.330Z,18.54
2023-04-26T08:20:39.800Z,17.90
2023-04-26T08:23:10.216Z,17.97
2023-04-26T08:25:40.984Z,17.91
2023-04-26T08:28:14.773Z,17.68
2023-04-26T08:30:44.840Z,17.58
2023-04-26T08:33:15.271Z,18.29
2023-04-26T08:35:48.091Z,18.99
2023-04-26T08:38:18.423Z,19.18
2023-04-26T08:40:49.914Z,19.13
2023-04-26T08:43:23.070Z,19.41
2023-04-26T08:45:54.666Z,19.15
2023-04-26T08:48:26.686Z,19.46
2023-04-26T08:50:57.501Z,19.62
2023-04-26T08:53:28.029Z,18.27
2023-04-26T08:55:58.770Z,17.57
2023-04-26T08:58:32.639Z,16.87
2023-04-26T09:01:04.655Z,16.48
2023-04-26T09:03:35.397Z,16.16
2023-04-26T09:06:06.693Z,15.90
2023-04-26T09:08:43.498Z,15.43
2023-04-26T09:11:13.762Z,14.80
2023-04-26T09:13:46.688Z,14.40
2023-04-26T09:16:17.032Z,13.96
2023-04-26T09:18:57.461Z,13.73
2023-04-26T09:21:29.948Z,13.80
2023-04-26T09:24:04.887Z,13.77
2023-04-26T09:26:35.151Z,13.78
2023-04-26T09:29:18.241Z,13.63
2023-04-26T09:31:50.358Z,13.44
2023-04-26T09:34:20.925Z,13.33
2023-04-26T09:36:56.379Z,13.41
2023-04-26T09:39:37.773Z,12.81
2023-04-26T09:42:08.793Z,12.51
2023-04-26T09:44:41.765Z,12.54
2023-04-26T09:47:14.096Z,12.39
2023-04-26T09:49:49.352Z,11.82
2023-04-26T09:52:20.781Z,11.53
2023-04-26T09:54:52.486Z,12.01
2023-04-26T09:57:23.892Z,12.33
2023-04-26T09:59:57.995Z,12.40
2023-04-26T10:02:30.256Z,12.59
2023-04-26T10:05:02.570Z,12.74
2023-04-26T10:07:34.273Z,12.81
2023-04-26T10:10:05.662Z,12.61
2023-04-26T10:12:37.598Z,12.18
2023-04-26T10:15:12.655Z,12.27
2023-04-26T10:17:43.074Z,12.48
2023-04-26T10:20:16.785Z,12.68
2023-04-26T10:22:52.172Z,13.06
2023-04-26T10:25:42.889Z,13.34
2023-04-26T10:28:14.128Z,13.15
2023-04-26T10:31:02.707Z,13.15
2023-04-26T10:33:33.026Z,13.17
2023-04-26T10:36:12.441Z,13.47
2023-04-26T10:38:44.657Z,12.85
2023-04-26T10:41:34.136Z,12.75
2023-04-26T10:44:39.740Z,12.26
2023-04-26T10:47:25.630Z,12.30
2023-04-26T10:49:56.128Z,12.03
2023-04-26T10:52:27.045Z,12.77
2023-04-26T10:54:58.835Z,13.12
2023-04-26T10:57:50.608Z,13.28
2023-04-26T11:00:31.957Z,13.46
2023-04-26T11:03:10.076Z,13.37
2023-04-26T11:05:56.944Z,13.59
2023-04-26T11:08:32.411Z,14.09
2023-04-26T11:11:11.204Z,14.63
2023-04-26T11:13:42.976Z,14.55
2023-04-26T11:16:14.279Z,14.30
2023-04-26T11:18:48.560Z,14.95
2023-04-26T11:21:20.478Z,15.58
2023-04-26T11:23:59.464Z,15.80
2023-04-26T11:26:36.861Z,15.58
2023-04-26T11:29:07.114Z,16.02
2023-04-26T11:31:37.796Z,15.85
2023-04-26T11:34:10.731Z,15.88
2023-04-26T11:36:41.839Z,15.90
2023-04-26T11:39:14.143Z,15.79
2023-04-26T11:41:44.577Z,15.78
2023-04-26T11:44:15.521Z,16.00
2023-04-26T11:46:46.536Z,15.97
2023-04-26T11:49:20.566Z,15.56
2023-04-26T11:51:51.671Z,15.59
2023-04-26T11:54:31.853Z,15.48
2023-04-26T11:57:03.209Z,15.53
2023-04-26T11:59:34.069Z,15.55
2023-04-26T12:02:10.490Z,15.74
2023-04-26T12:04:45.103Z,15.83
2023-04-26T12:07:15.614Z,15.86
2023-04-26T12:09:46.295Z,15.81
2023-04-26T12:12:16.735Z,15.83
2023-04-26T12:14:47.593Z,15.81
2023-04-26T12:17:18.442Z,15.50
2023-04-26T12:19:53.243Z,15.14
2023-04-26T12:22:24.764Z,14.98
2023-04-26T12:25:08.174Z,15.10
2023-04-26T12:27:39.820Z,15.15
2023-04-26T12:30:11.612Z,15.13
2023-04-26T12:32:42.165Z,15.22
2023-04-26T12:35:15.147Z,15.03
2023-04-26T12:37:45.505Z,15.12
2023-04-26T12:40:16.688Z,14.92
2023-04-26T12:42:47.147Z,14.77
2023-04-26T12:45:18.526Z,14.79
2023-04-26T12:47:49.876Z,14.63
2023-04-26T12:50:23.085Z,14.50
2023-04-26T12:52:53.430Z,14.29
2023-04-26T12:55:24.360Z,14.23
2023-04-26T12:57:54.712Z,14.16
2023-04-26T13:00:26.257Z,14.19
2023-04-26T13:02:56.777Z,14.30
2023-04-26T13:05:29.937Z,14.39
2023-04-26T13:08:02.300Z,14.39
2023-04-26T13:10:33.195Z,14.47
2023-04-26T13:13:03.595Z,14.61
2023-04-26T13:15:34.241Z,14.82
2023-04-26T13:18:04.699Z,14.88
2023-04-26T13:20:38.514Z,14.81
2023-04-26T13:23:09.659Z,14.78
2023-04-26T13:25:40.410Z,14.77
2023-04-26T13:28:11.037Z,14.79
2023-04-26T13:30:41.596Z,14.74
2023-04-26T13:33:11.940Z,14.75
2023-04-26T13:35:44.871Z,14.81
2023-04-26T13:38:16.581Z,14.96
2023-04-26T13:40:47.472Z,15.00
2023-04-26T13:43:17.943Z,15.12
2023-04-26T13:45:48.235Z,15.07
2023-04-26T13:48:21.828Z,14.75
2023-04-26T13:50:56.466Z,14.87
2023-04-26T13:53:26.805Z,15.10
2023-04-26T13:55:57.322Z,15.16
2023-04-26T13:58:27.784Z,15.15
2023-04-26T14:00:58.158Z,15.25
2023-04-26T14:03:29.751Z,15.03
2023-04-26T14:06:04.673Z,15.18
2023-04-26T14:08:36.155Z,15.43
2023-04-26T14:11:08.156Z,15.55
2023-04-26T14:13:38.444Z,15.56
2023-04-26T14:16:09.124Z,15.40
2023-04-26T14:18:45.069Z,15.40
2023-04-26T14:21:20.943Z,15.59
2023-04-26T14:23:51.236Z,15.60
2023-04-26T14:26:21.950Z,15.64
2023-04-26T14:28:52.496Z,15.75
2023-04-26T14:31:24.621Z,15.64
2023-04-26T14:33:55.099Z,15.60
2023-04-26T14:36:28.322Z,15.60
2023-04-26T14:38:58.653Z,15.56
2023-04-26T14:41:28.956Z,15.46
2023-04-26T14:43:59.221Z,15.40
2023-04-26T14:46:29.539Z,15.40
2023-04-26T14:48:59.841Z,15.49
2023-04-26T14:51:32.903Z,15.47
2023-04-26T14:54:03.261Z,15.43
2023-04-26T14:56:36.391Z,15.36
2023-04-26T14:59:08.232Z,15.10
2023-04-26T15:01:38.777Z,14.82
2023-04-26T15:04:09.396Z,14.72
2023-04-26T15:06:42.611Z,14.40
2023-04-26T15:09:13.388Z,14.34
2023-04-26T15:11:44.007Z,14.16
2023-04-26T15:14:14.381Z,14.11
2023-04-26T15:16:45.369Z,13.50
2023-04-26T15:19:17.861Z,13.54
2023-04-26T15:21:52.837Z,13.86
2023-04-26T15:24:23.120Z,14.15
2023-04-26T15:26:53.289Z,14.30
2023-04-26T15:29:23.671Z,14.31
2023-04-26T15:31:54.011Z,14.36
2023-04-26T15:34:25.483Z,14.20
2023-04-26T15:36:58.301Z,14.08
2023-04-26T15:39:28.633Z,14.07
2023-04-26T15:41:59.134Z,13.97
2023-04-26T15:44:29.494Z,13.96
2023-04-26T15:47:01.620Z,13.90
2023-04-26T15:49:31.933Z,13.76
2023-04-26T15:52:07.235Z,14.00
2023-04-26T15:54:37.481Z,14.05
2023-04-26T15:57:07.796Z,13.71
2023-04-26T15:59:38.116Z,13.68
2023-04-26T16:02:08.495Z,13.63
2023-04-26T16:04:38.970Z,13.54
2023-04-26T16:07:12.028Z,13.41
2023-04-26T16:09:42.381Z,13.51
2023-04-26T16:12:12.777Z,13.01
2023-04-26T16:14:43.436Z,13.13
2023-04-26T16:17:14.005Z,13.28
2023-04-26T16:19:44.265Z,13.31
2023-04-26T16:22:17.243Z,13.31
2023-04-26T16:24:47.626Z,13.20
2023-04-26T16:27:18.133Z,13.10
2023-04-26T16:29:48.471Z,13.02
2023-04-26T16:32:18.927Z,12.95
2023-04-26T16:34:49.299Z,13.01
2023-04-26T16:37:22.173Z,12.83
2023-04-26T16:39:58.394Z,12.75
2023-04-26T16:42:29.224Z,12.72
2023-04-26T16:44:59.528Z,12.65
2023-04-26T16:47:29.906Z,12.63
2023-04-26T16:50:00.549Z,12.55
2023-04-26T16:52:33.547Z,12.52
2023-04-26T16:55:04.377Z,12.45
2023-04-26T16:57:34.635Z,12.42
2023-04-26T17:00:07.532Z,12.41
2023-04-26T17:02:42.861Z,12.32
2023-04-26T17:05:13.986Z,12.26
2023-04-26T17:07:46.917Z,12.23
2023-04-26T17:10:17.370Z,12.23
2023-04-26T17:12:47.616Z,12.22
2023-04-26T17:15:17.921Z,12.18
2023-04-26T17:17:48.574Z,12.18
2023-04-26T17:20:19.930Z,12.18
2023-04-26T17:22:52.793Z,12.18
2023-04-26T17:25:23.817Z,12.16
2023-04-26T17:27:55.649Z,12.15
2023-04-26T17:30:29.473Z,12.07
2023-04-26T17:33:01.013Z,11.96
2023-04-26T17:35:31.664Z,11.93
2023-04-26T17:38:05.224Z,11.91
2023-04-26T17:40:35.520Z,11.93
2023-04-26T17:43:08.194Z,11.89
2023-04-26T17:45:38.842Z,11.88
2023-04-26T17:48:13.436Z,11.86
2023-04-26T17:50:44.285Z,11.72
2023-04-26T17:53:18.010Z,11.70
2023-04-26T17:55:48.233Z,11.71
2023-04-26T17:58:18.760Z,11.65
2023-04-26T18:00:49.098Z,11.66
2023-04-26T18:03:20.645Z,11.47
2023-04-26T18:05:51.349Z,11.49
2023-04-26T18:08:24.481Z,11.44
2023-04-26T18:10:54.797Z,11.38
2023-04-26T18:13:25.083Z,11.29
2023-04-26T18:15:57.654Z,11.28
2023-04-26T18:18:28.158Z,11.28
2023-04-26T18:20:58.437Z,11.20
2023-04-26T18:23:31.784Z,11.10
2023-04-26T18:26:02.041Z,11.10
2023-04-26T18:28:32.440Z,11.09
2023-04-26T18:31:03.613Z,11.00
2023-04-26T18:33:33.950Z,10.96
2023-04-26T18:36:04.890Z,10.91
2023-04-26T18:38:37.828Z,10.96
2023-04-26T18:41:08.143Z,10.91
2023-04-26T18:43:38.506Z,10.91
2023-04-26T18:46:08.848Z,10.87
2023-04-26T18:48:39.239Z,10.84
2023-04-26T18:51:09.579Z,10.85
2023-04-26T18:53:42.569Z,10.82
2023-04-26T18:56:12.771Z,10.87
2023-04-26T18:58:43.126Z,10.85
2023-04-26T19:01:13.557Z,10.87
2023-04-26T19:03:45.776Z,10.86
2023-04-26T19:06:17.715Z,10.81
2023-04-26T19:08:53.448Z,10.76
2023-04-26T19:11:23.740Z,10.71
2023-04-26T19:13:54.080Z,10.65
2023-04-26T19:16:24.585Z,10.61
2023-04-26T19:18:55.367Z,10.56
2023-04-26T19:21:25.681Z,10.56
2023-04-26T19:23:58.699Z,10.53
2023-04-26T19:26:29.032Z,10.48
2023-04-26T19:28:59.326Z,10.43
2023-04-26T19:31:30.041Z,10.37
2023-04-26T19:34:00.354Z,10.37
2023-04-26T19:36:31.801Z,10.32
2023-04-26T19:39:05.022Z,10.21
2023-04-26T19:41:35.706Z,10.25
2023-04-26T19:44:06.184Z,10.29
2023-04-26T19:46:37.252Z,10.25
2023-04-26T19:49:07.624Z,10.14
2023-04-26T19:51:38.165Z,10.18
2023-04-26T19:54:11.327Z,10.16
2023-04-26T19:56:41.621Z,10.12
2023-04-26T19:59:13.662Z,10.11
2023-04-26T20:01:44.101Z,10.10
2023-04-26T20:04:14.925Z,10.07
2023-04-26T20:06:45.407Z,10.04
2023-04-26T20:09:18.543Z,9.98
2023-04-26T20:11:49.970Z,9.92
2023-04-26T20:14:20.492Z,9.89
2023-04-26T20:16:51.912Z,9.86
2023-04-26T20:19:22.215Z,9.84
2023-04-26T20:21:52.584Z,9.83
2023-04-26T20:24:28.133Z,9.70
2023-04-26T20:26:59.032Z,9.79
2023-04-26T20:29:29.286Z,9.78
2023-04-26T20:31:59.664Z,9.80
2023-04-26T20:34:29.991Z,9.83
2023-04-26T20:37:03.328Z,9.79
2023-04-26T20:39:36.972Z,9.76
2023-04-26T20:42:07.644Z,9.76
2023-04-26T20:44:38.032Z,9.74
2023-04-26T20:47:08.994Z,9.70
2023-04-26T20:49:39.427Z,9.68
2023-04-26T20:52:09.959Z,9.68
2023-04-26T20:54:42.828Z,9.74
2023-04-26T20:57:13.079Z,9.76
2023-04-26T20:59:43.654Z,9.78
2023-04-26T21:02:14.584Z,9.76
2023-04-26T21:04:45.327Z,9.61
2023-04-26T21:07:15.949Z,9.75
2023-04-26T21:09:49.651Z,9.74
2023-04-26T21:12:20.008Z,9.73
2023-04-26T21:14:50.274Z,9.73
2023-04-26T21:17:21.675Z,9.76
2023-04-26T21:19:52.110Z,9.76
2023-04-26T21:22:22.453Z,9.80
2023-04-26T21:24:57.356Z,9.83
2023-04-26T21:27:29.325Z,9.86
2023-04-26T21:29:59.627Z,9.91
2023-04-26T21:32:29.905Z,9.89
2023-04-26T21:35:00.172Z,9.91
2023-04-26T21:37:31.096Z,9.93
2023-04-26T21:40:06.243Z,9.90
2023-04-26T21:42:36.639Z,9.90
2023-04-26T21:45:08.334Z,9.88
2023-04-26T21:47:38.653Z,9.85
2023-04-26T21:50:14.512Z,9.83
2023-04-26T21:52:44.838Z,9.81
2023-04-26T21:55:17.817Z,9.80
2023-04-26T21:57:48.166Z,9.74
2023-04-26T22:00:19.090Z,9.75
2023-04-26T22:02:49.586Z,9.73
2023-04-26T22:05:19.911Z,9.73
2023-04-26T22:07:50.544Z,9.70
2023-04-26T22:10:23.620Z,9.63
2023-04-26T22:12:58.208Z,9.61
2023-04-26T22:15:28.533Z,9.65
2023-04-26T22:17:59.039Z,9.66
2023-04-26T22:20:30.213Z,9.67
2023-04-26T22:23:00.611Z,9.68
2023-04-26T22:25:33.518Z,9.69
2023-04-26T22:28:06.275Z,9.68
2023-04-26T22:30:36.707Z,9.69
2023-04-26T22:33:07.387Z,9.67
2023-04-26T22:35:41.844Z,9.60
2023-04-26T22:38:12.112Z,9.62
2023-04-26T22:40:45.212Z,9.60
2023-04-26T22:43:15.505Z,9.57
2023-04-26T22:45:45.787Z,9.59
2023-04-26T22:48:17.080Z,9.58
2023-04-26T22:50:47.461Z,9.60
2023-04-26T22:53:17.823Z,9.63
2023-04-26T22:55:52.037Z,9.63
2023-04-26T22:58:24.794Z,9.59
2023-04-26T23:00:55.275Z,9.57
2023-04-26T23:03:25.834Z,9.58
2023-04-26T23:05:56.244Z,9.57
2023-04-26T23:08:28.866Z,9.61
2023-04-26T23:11:01.873Z,9.62
2023-04-26T23:13:32.546Z,9.60
2023-04-26T23:16:02.861Z,9.55
2023-04-26T23:18:34.268Z,9.57
2023-04-26T23:21:07.714Z,9.57
2023-04-26T23:23:39.087Z,9.57
2023-04-26T23:26:11.992Z,9.59
2023-04-26T23:28:42.762Z,9.57
2023-04-26T23:31:13.105Z,9.57
2023-04-26T23:33:45.747Z,9.57
2023-04-26T23:36:17.514Z,9.57
2023-04-26T23:38:47.851Z,9.59
2023-04-26T23:41:23.776Z,9.54
2023-04-26T23:43:54.050Z,9.50
2023-04-26T23:46:24.438Z,9.50
2023-04-26T23:48:54.755Z,9.50
2023-04-26T23:51:25.037Z,9.30
2023-04-26T23:53:55.496Z,9.36
2023-04-26T23:56:28.845Z,9.62
2023-04-26T23:58:59.499Z,9.65
